sensor_id;sensor_type;location;lat;lon;timestamp;P1;durP1;ratioP1;P2;durP2;ratioP2
20034;SDS011;10178;48.034;9.800;2022-10-16T00:01:06;5.22;;;1.80;;
20034;SDS011;10178;48.034;9.800;2022-10-16T00:03:34;7.15;;;2.05;;
20034;SDS011;10178;48.034;9.800;2022-10-16T00:06:00;4.22;;;1.73;;
20034;SDS011;10178;48.034;9.800;2022-10-16T00:08:27;3.72;;;1.60;;
20034;SDS011;10178;48.034;9.800;2022-10-16T00:10:58;2.50;;;1.60;;
20034;SDS011;10178;48.034;9.800;2022-10-16T00:13:25;4.70;;;1.90;;
20034;SDS011;10178;48.034;9.800;2022-10-16T00:15:54;1.45;;;1.35;;
20034;SDS011;10178;48.034;9.800;2022-10-16T00:18:21;2.50;;;1.67;;
20034;SDS011;10178;48.034;9.800;2022-10-16T00:20:47;4.22;;;1.70;;
20034;SDS011;10178;48.034;9.800;2022-10-16T00:23:13;1.88;;;1.48;;
20034;SDS011;10178;48.034;9.800;2022-10-16T00:25:39;7.20;;;1.73;;
20034;SDS011;10178;48.034;9.800;2022-10-16T00:28:05;4.28;;;1.55;;
20034;SDS011;10178;48.034;9.800;2022-10-16T00:30:30;8.57;;;2.20;;
20034;SDS011;10178;48.034;9.800;2022-10-16T00:32:56;5.30;;;1.90;;
20034;SDS011;10178;48.034;9.800;2022-10-16T00:35:22;6.03;;;2.22;;
20034;SDS011;10178;48.034;9.800;2022-10-16T00:37:48;7.72;;;2.63;;
20034;SDS011;10178;48.034;9.800;2022-10-16T00:40:13;8.93;;;2.70;;
20034;SDS011;10178;48.034;9.800;2022-10-16T00:42:39;4.82;;;3.08;;
20034;SDS011;10178;48.034;9.800;2022-10-16T00:45:05;5.68;;;2.75;;
20034;SDS011;10178;48.034;9.800;2022-10-16T00:47:39;7.32;;;2.50;;
20034;SDS011;10178;48.034;9.800;2022-10-16T00:52:35;3.70;;;1.90;;
20034;SDS011;10178;48.034;9.800;2022-10-16T00:55:04;2.22;;;1.75;;
20034;SDS011;10178;48.034;9.800;2022-10-16T00:57:31;3.95;;;1.70;;
20034;SDS011;10178;48.034;9.800;2022-10-16T00:59:57;4.88;;;2.45;;
20034;SDS011;10178;48.034;9.800;2022-10-16T01:02:23;4.60;;;2.50;;
20034;SDS011;10178;48.034;9.800;2022-10-16T01:04:50;7.85;;;2.88;;
20034;SDS011;10178;48.034;9.800;2022-10-16T01:10:14;2.78;;;1.60;;
20034;SDS011;10178;48.034;9.800;2022-10-16T01:18:00;5.70;;;2.42;;
20034;SDS011;10178;48.034;9.800;2022-10-16T01:20:32;3.72;;;2.20;;
20034;SDS011;10178;48.034;9.800;2022-10-16T01:32:11;9.48;;;3.55;;
20034;SDS011;10178;48.034;9.800;2022-10-16T01:34:47;8.85;;;3.30;;
20034;SDS011;10178;48.034;9.800;2022-10-16T01:37:25;6.65;;;3.40;;
20034;SDS011;10178;48.034;9.800;2022-10-16T01:39:58;4.95;;;2.95;;
20034;SDS011;10178;48.034;9.800;2022-10-16T01:42:33;6.60;;;2.47;;
20034;SDS011;10178;48.034;9.800;2022-10-16T01:45:02;6.65;;;3.05;;
20034;SDS011;10178;48.034;9.800;2022-10-16T01:47:31;4.30;;;2.80;;
20034;SDS011;10178;48.034;9.800;2022-10-16T01:49:58;3.75;;;3.10;;
20034;SDS011;10178;48.034;9.800;2022-10-16T01:52:26;7.30;;;3.40;;
20034;SDS011;10178;48.034;9.800;2022-10-16T01:54:55;2.25;;;2.03;;
20034;SDS011;10178;48.034;9.800;2022-10-16T01:57:22;5.93;;;2.67;;
20034;SDS011;10178;48.034;9.800;2022-10-16T01:59:52;6.25;;;2.85;;
20034;SDS011;10178;48.034;9.800;2022-10-16T02:02:21;4.03;;;3.10;;
20034;SDS011;10178;48.034;9.800;2022-10-16T02:04:58;4.68;;;3.22;;
20034;SDS011;10178;48.034;9.800;2022-10-16T02:07:45;5.25;;;3.15;;
20034;SDS011;10178;48.034;9.800;2022-10-16T02:10:11;10.63;;;2.25;;
20034;SDS011;10178;48.034;9.800;2022-10-16T02:12:37;3.70;;;3.13;;
20034;SDS011;10178;48.034;9.800;2022-10-16T02:15:06;5.75;;;3.20;;
20034;SDS011;10178;48.034;9.800;2022-10-16T02:17:32;7.80;;;3.00;;
20034;SDS011;10178;48.034;9.800;2022-10-16T02:19:58;2.35;;;2.15;;
20034;SDS011;10178;48.034;9.800;2022-10-16T02:22:27;13.45;;;3.30;;
20034;SDS011;10178;48.034;9.800;2022-10-16T02:25:06;5.18;;;2.45;;
20034;SDS011;10178;48.034;9.800;2022-10-16T02:30:19;6.63;;;3.50;;
20034;SDS011;10178;48.034;9.800;2022-10-16T02:32:55;4.75;;;2.97;;
20034;SDS011;10178;48.034;9.800;2022-10-16T02:35:25;3.38;;;2.65;;
20034;SDS011;10178;48.034;9.800;2022-10-16T02:37:52;4.32;;;1.98;;
20034;SDS011;10178;48.034;9.800;2022-10-16T02:40:19;2.20;;;2.00;;
20034;SDS011;10178;48.034;9.800;2022-10-16T02:42:49;7.80;;;2.10;;
20034;SDS011;10178;48.034;9.800;2022-10-16T02:45:16;2.28;;;1.90;;
20034;SDS011;10178;48.034;9.800;2022-10-16T02:47:42;1.77;;;1.55;;
20034;SDS011;10178;48.034;9.800;2022-10-16T02:50:08;7.47;;;2.50;;
20034;SDS011;10178;48.034;9.800;2022-10-16T02:52:33;10.35;;;2.30;;
20034;SDS011;10178;48.034;9.800;2022-10-16T02:54:59;3.00;;;1.98;;
20034;SDS011;10178;48.034;9.800;2022-10-16T02:57:25;1.80;;;1.70;;
20034;SDS011;10178;48.034;9.800;2022-10-16T02:59:51;1.45;;;1.35;;
20034;SDS011;10178;48.034;9.800;2022-10-16T03:02:17;4.80;;;1.67;;
20034;SDS011;10178;48.034;9.800;2022-10-16T03:04:42;3.63;;;1.85;;
20034;SDS011;10178;48.034;9.800;2022-10-16T03:07:08;3.42;;;2.20;;
20034;SDS011;10178;48.034;9.800;2022-10-16T03:09:34;6.88;;;2.50;;
20034;SDS011;10178;48.034;9.800;2022-10-16T03:11:59;4.25;;;2.70;;
20034;SDS011;10178;48.034;9.800;2022-10-16T03:14:25;5.70;;;2.40;;
20034;SDS011;10178;48.034;9.800;2022-10-16T03:16:51;7.80;;;2.63;;
20034;SDS011;10178;48.034;9.800;2022-10-16T03:19:17;6.78;;;2.67;;
20034;SDS011;10178;48.034;9.800;2022-10-16T03:21:43;5.75;;;2.50;;
20034;SDS011;10178;48.034;9.800;2022-10-16T03:24:09;4.93;;;1.60;;
20034;SDS011;10178;48.034;9.800;2022-10-16T03:26:34;1.55;;;1.45;;
20034;SDS011;10178;48.034;9.800;2022-10-16T03:29:00;6.03;;;1.98;;
20034;SDS011;10178;48.034;9.800;2022-10-16T03:31:28;8.85;;;2.53;;
20034;SDS011;10178;48.034;9.800;2022-10-16T03:33:54;7.32;;;1.95;;
20034;SDS011;10178;48.034;9.800;2022-10-16T03:36:20;2.53;;;1.67;;
20034;SDS011;10178;48.034;9.800;2022-10-16T03:38:45;2.53;;;1.58;;
20034;SDS011;10178;48.034;9.800;2022-10-16T03:41:11;3.20;;;1.40;;
20034;SDS011;10178;48.034;9.800;2022-10-16T03:43:36;2.97;;;1.50;;
20034;SDS011;10178;48.034;9.800;2022-10-16T03:46:02;5.68;;;2.05;;
20034;SDS011;10178;48.034;9.800;2022-10-16T03:48:28;2.72;;;1.52;;
20034;SDS011;10178;48.034;9.800;2022-10-16T03:50:54;2.63;;;1.55;;
20034;SDS011;10178;48.034;9.800;2022-10-16T03:53:19;3.58;;;1.58;;
20034;SDS011;10178;48.034;9.800;2022-10-16T03:55:45;2.25;;;1.73;;
20034;SDS011;10178;48.034;9.800;2022-10-16T03:58:11;5.68;;;1.73;;
20034;SDS011;10178;48.034;9.800;2022-10-16T04:00:43;3.65;;;2.10;;
20034;SDS011;10178;48.034;9.800;2022-10-16T04:03:10;9.77;;;3.65;;
20034;SDS011;10178;48.034;9.800;2022-10-16T04:05:36;3.60;;;2.20;;
20034;SDS011;10178;48.034;9.800;2022-10-16T04:08:02;6.78;;;2.17;;
20034;SDS011;10178;48.034;9.800;2022-10-16T04:10:28;5.35;;;3.13;;
20034;SDS011;10178;48.034;9.800;2022-10-16T04:12:53;2.78;;;2.55;;
20034;SDS011;10178;48.034;9.800;2022-10-16T04:15:21;3.95;;;2.20;;
20034;SDS011;10178;48.034;9.800;2022-10-16T04:17:47;5.70;;;2.60;;
20034;SDS011;10178;48.034;9.800;2022-10-16T04:20:12;4.78;;;2.90;;
20034;SDS011;10178;48.034;9.800;2022-10-16T04:22:38;4.07;;;2.47;;
20034;SDS011;10178;48.034;9.800;2022-10-16T04:25:04;4.07;;;2.30;;
20034;SDS011;10178;48.034;9.800;2022-10-16T04:27:30;6.88;;;3.15;;
20034;SDS011;10178;48.034;9.800;2022-10-16T04:29:56;4.80;;;2.53;;
20034;SDS011;10178;48.034;9.800;2022-10-16T04:32:22;11.82;;;2.72;;
20034;SDS011;10178;48.034;9.800;2022-10-16T04:34:48;2.67;;;1.90;;
20034;SDS011;10178;48.034;9.800;2022-10-16T04:37:14;1.92;;;1.70;;
20034;SDS011;10178;48.034;9.800;2022-10-16T04:39:39;3.40;;;1.35;;
20034;SDS011;10178;48.034;9.800;2022-10-16T04:42:05;2.47;;;1.50;;
20034;SDS011;10178;48.034;9.800;2022-10-16T04:44:30;5.65;;;1.50;;
20034;SDS011;10178;48.034;9.800;2022-10-16T04:46:56;1.63;;;1.40;;
20034;SDS011;10178;48.034;9.800;2022-10-16T04:49:22;3.03;;;1.52;;
20034;SDS011;10178;48.034;9.800;2022-10-16T04:51:47;2.03;;;1.20;;
20034;SDS011;10178;48.034;9.800;2022-10-16T04:54:13;1.67;;;1.30;;
20034;SDS011;10178;48.034;9.800;2022-10-16T04:56:38;1.50;;;1.23;;
20034;SDS011;10178;48.034;9.800;2022-10-16T04:59:15;10.13;;;1.67;;
20034;SDS011;10178;48.034;9.800;2022-10-16T05:01:41;3.38;;;1.27;;
20034;SDS011;10178;48.034;9.800;2022-10-16T05:04:07;2.70;;;1.20;;
20034;SDS011;10178;48.034;9.800;2022-10-16T05:06:33;6.47;;;1.88;;
20034;SDS011;10178;48.034;9.800;2022-10-16T05:08:59;5.95;;;1.50;;
20034;SDS011;10178;48.034;9.800;2022-10-16T05:11:25;6.75;;;1.40;;
20034;SDS011;10178;48.034;9.800;2022-10-16T05:13:50;3.83;;;1.33;;
20034;SDS011;10178;48.034;9.800;2022-10-16T05:16:16;3.08;;;1.50;;
20034;SDS011;10178;48.034;9.800;2022-10-16T05:18:42;2.42;;;1.63;;
20034;SDS011;10178;48.034;9.800;2022-10-16T05:21:08;1.48;;;0.95;;
20034;SDS011;10178;48.034;9.800;2022-10-16T05:23:33;3.05;;;1.35;;
20034;SDS011;10178;48.034;9.800;2022-10-16T05:25:59;6.07;;;1.35;;
20034;SDS011;10178;48.034;9.800;2022-10-16T05:28:25;6.80;;;1.45;;
20034;SDS011;10178;48.034;9.800;2022-10-16T05:30:52;8.20;;;2.60;;
20034;SDS011;10178;48.034;9.800;2022-10-16T05:33:19;12.85;;;4.90;;
20034;SDS011;10178;48.034;9.800;2022-10-16T05:35:49;5.60;;;1.60;;
20034;SDS011;10178;48.034;9.800;2022-10-16T05:38:15;2.65;;;1.50;;
20034;SDS011;10178;48.034;9.800;2022-10-16T05:40:41;2.85;;;1.90;;
20034;SDS011;10178;48.034;9.800;2022-10-16T05:43:06;6.18;;;1.70;;
20034;SDS011;10178;48.034;9.800;2022-10-16T05:45:32;2.33;;;1.58;;
20034;SDS011;10178;48.034;9.800;2022-10-16T05:47:58;3.65;;;1.70;;
20034;SDS011;10178;48.034;9.800;2022-10-16T05:50:24;2.72;;;1.60;;
20034;SDS011;10178;48.034;9.800;2022-10-16T05:52:50;3.42;;;1.83;;
20034;SDS011;10178;48.034;9.800;2022-10-16T05:55:15;3.05;;;1.40;;
20034;SDS011;10178;48.034;9.800;2022-10-16T05:57:41;2.72;;;1.60;;
20034;SDS011;10178;48.034;9.800;2022-10-16T06:00:07;5.10;;;1.80;;
20034;SDS011;10178;48.034;9.800;2022-10-16T06:02:33;5.68;;;1.58;;
20034;SDS011;10178;48.034;9.800;2022-10-16T06:04:58;9.02;;;2.92;;
20034;SDS011;10178;48.034;9.800;2022-10-16T06:07:24;6.70;;;2.83;;
20034;SDS011;10178;48.034;9.800;2022-10-16T06:09:53;2.03;;;1.60;;
20034;SDS011;10178;48.034;9.800;2022-10-16T06:12:19;1.40;;;1.30;;
20034;SDS011;10178;48.034;9.800;2022-10-16T06:14:45;3.10;;;1.50;;
20034;SDS011;10178;48.034;9.800;2022-10-16T06:17:14;4.72;;;1.60;;
20034;SDS011;10178;48.034;9.800;2022-10-16T06:19:40;9.43;;;2.95;;
20034;SDS011;10178;48.034;9.800;2022-10-16T06:22:06;2.30;;;2.10;;
20034;SDS011;10178;48.034;9.800;2022-10-16T06:24:31;6.78;;;2.42;;
20034;SDS011;10178;48.034;9.800;2022-10-16T06:26:57;4.20;;;1.90;;
20034;SDS011;10178;48.034;9.800;2022-10-16T06:29:22;8.82;;;2.72;;
20034;SDS011;10178;48.034;9.800;2022-10-16T06:31:48;11.27;;;2.67;;
20034;SDS011;10178;48.034;9.800;2022-10-16T06:34:14;4.53;;;2.30;;
20034;SDS011;10178;48.034;9.800;2022-10-16T06:36:39;8.05;;;2.55;;
20034;SDS011;10178;48.034;9.800;2022-10-16T06:39:06;6.95;;;2.42;;
20034;SDS011;10178;48.034;9.800;2022-10-16T06:41:32;9.02;;;2.78;;
20034;SDS011;10178;48.034;9.800;2022-10-16T06:43:58;5.68;;;1.80;;
20034;SDS011;10178;48.034;9.800;2022-10-16T06:46:24;3.88;;;2.15;;
20034;SDS011;10178;48.034;9.800;2022-10-16T06:48:52;2.83;;;2.20;;
20034;SDS011;10178;48.034;9.800;2022-10-16T06:51:18;3.03;;;2.40;;
20034;SDS011;10178;48.034;9.800;2022-10-16T06:53:47;4.38;;;2.00;;
20034;SDS011;10178;48.034;9.800;2022-10-16T06:58:47;4.15;;;2.38;;
20034;SDS011;10178;48.034;9.800;2022-10-16T07:01:14;4.55;;;2.05;;
20034;SDS011;10178;48.034;9.800;2022-10-16T07:03:42;5.93;;;2.45;;
20034;SDS011;10178;48.034;9.800;2022-10-16T07:06:09;3.15;;;2.03;;
20034;SDS011;10178;48.034;9.800;2022-10-16T07:08:37;6.28;;;2.47;;
20034;SDS011;10178;48.034;9.800;2022-10-16T07:11:05;4.22;;;2.80;;
20034;SDS011;10178;48.034;9.800;2022-10-16T07:13:33;6.95;;;2.47;;
20034;SDS011;10178;48.034;9.800;2022-10-16T07:18:39;4.50;;;2.53;;
20034;SDS011;10178;48.034;9.800;2022-10-16T07:21:16;4.95;;;2.72;;
20034;SDS011;10178;48.034;9.800;2022-10-16T07:23:44;3.80;;;2.08;;
20034;SDS011;10178;48.034;9.800;2022-10-16T07:26:09;6.57;;;2.60;;
20034;SDS011;10178;48.034;9.800;2022-10-16T07:28:36;7.03;;;2.58;;
20034;SDS011;10178;48.034;9.800;2022-10-16T07:31:03;5.18;;;3.33;;
20034;SDS011;10178;48.034;9.800;2022-10-16T07:33:31;5.90;;;2.45;;
20034;SDS011;10178;48.034;9.800;2022-10-16T07:35:58;1.83;;;1.67;;
20034;SDS011;10178;48.034;9.800;2022-10-16T07:38:23;2.10;;;1.90;;
20034;SDS011;10178;48.034;9.800;2022-10-16T07:40:55;2.95;;;2.30;;
20034;SDS011;10178;48.034;9.800;2022-10-16T07:43:26;4.93;;;2.38;;
20034;SDS011;10178;48.034;9.800;2022-10-16T07:45:52;4.25;;;2.00;;
20034;SDS011;10178;48.034;9.800;2022-10-16T07:48:19;8.95;;;2.78;;
20034;SDS011;10178;48.034;9.800;2022-10-16T07:50:45;6.05;;;2.67;;
20034;SDS011;10178;48.034;9.800;2022-10-16T07:53:11;3.63;;;1.95;;
20034;SDS011;10178;48.034;9.800;2022-10-16T07:55:43;3.15;;;1.90;;
20034;SDS011;10178;48.034;9.800;2022-10-16T07:58:09;5.38;;;1.67;;
20034;SDS011;10178;48.034;9.800;2022-10-16T08:00:35;3.20;;;1.55;;
20034;SDS011;10178;48.034;9.800;2022-10-16T08:03:02;4.13;;;1.60;;
20034;SDS011;10178;48.034;9.800;2022-10-16T08:05:29;1.88;;;1.60;;
20034;SDS011;10178;48.034;9.800;2022-10-16T08:07:56;2.33;;;1.83;;
20034;SDS011;10178;48.034;9.800;2022-10-16T08:10:23;1.85;;;1.60;;
20034;SDS011;10178;48.034;9.800;2022-10-16T08:12:51;3.97;;;1.50;;
20034;SDS011;10178;48.034;9.800;2022-10-16T08:15:17;1.77;;;1.50;;
20034;SDS011;10178;48.034;9.800;2022-10-16T08:17:42;2.08;;;1.50;;
20034;SDS011;10178;48.034;9.800;2022-10-16T08:20:09;2.33;;;1.70;;
20034;SDS011;10178;48.034;9.800;2022-10-16T08:22:35;1.98;;;1.70;;
20034;SDS011;10178;48.034;9.800;2022-10-16T08:25:00;3.63;;;1.83;;
20034;SDS011;10178;48.034;9.800;2022-10-16T08:27:30;3.50;;;1.60;;
20034;SDS011;10178;48.034;9.800;2022-10-16T08:29:57;9.48;;;1.83;;
20034;SDS011;10178;48.034;9.800;2022-10-16T08:32:22;4.05;;;1.40;;
20034;SDS011;10178;48.034;9.800;2022-10-16T08:34:48;3.67;;;1.70;;
20034;SDS011;10178;48.034;9.800;2022-10-16T08:37:13;3.03;;;1.33;;
20034;SDS011;10178;48.034;9.800;2022-10-16T08:39:39;1.30;;;1.20;;
20034;SDS011;10178;48.034;9.800;2022-10-16T08:47:51;3.92;;;1.63;;
20034;SDS011;10178;48.034;9.800;2022-10-16T08:50:38;6.00;;;1.70;;
20034;SDS011;10178;48.034;9.800;2022-10-16T08:53:05;5.72;;;1.50;;
20034;SDS011;10178;48.034;9.800;2022-10-16T08:55:37;2.25;;;1.58;;
20034;SDS011;10178;48.034;9.800;2022-10-16T08:58:13;1.88;;;1.45;;
20034;SDS011;10178;48.034;9.800;2022-10-16T09:00:47;4.30;;;1.50;;
20034;SDS011;10178;48.034;9.800;2022-10-16T09:15:13;1.35;;;1.25;;
20034;SDS011;10178;48.034;9.800;2022-10-16T09:17:52;1.80;;;1.45;;
20034;SDS011;10178;48.034;9.800;2022-10-16T09:20:54;1.67;;;1.35;;
20034;SDS011;10178;48.034;9.800;2022-10-16T09:23:34;1.48;;;1.38;;
20034;SDS011;10178;48.034;9.800;2022-10-16T09:26:01;1.52;;;1.30;;
20034;SDS011;10178;48.034;9.800;2022-10-16T09:28:30;1.20;;;1.10;;
20034;SDS011;10178;48.034;9.800;2022-10-16T09:30:55;1.48;;;1.38;;
20034;SDS011;10178;48.034;9.800;2022-10-16T09:33:22;4.32;;;1.50;;
20034;SDS011;10178;48.034;9.800;2022-10-16T09:35:54;4.57;;;1.25;;
20034;SDS011;10178;48.034;9.800;2022-10-16T09:38:27;1.48;;;1.38;;
20034;SDS011;10178;48.034;9.800;2022-10-16T09:40:55;1.83;;;1.08;;
20034;SDS011;10178;48.034;9.800;2022-10-16T09:46:21;5.90;;;1.40;;
20034;SDS011;10178;48.034;9.800;2022-10-16T09:48:48;5.82;;;1.60;;
20034;SDS011;10178;48.034;9.800;2022-10-16T09:51:35;5.10;;;1.33;;
20034;SDS011;10178;48.034;9.800;2022-10-16T09:56:34;2.92;;;1.40;;
20034;SDS011;10178;48.034;9.800;2022-10-16T09:59:11;3.53;;;1.60;;
20034;SDS011;10178;48.034;9.800;2022-10-16T10:01:43;1.35;;;1.25;;
20034;SDS011;10178;48.034;9.800;2022-10-16T10:04:12;2.33;;;1.27;;
20034;SDS011;10178;48.034;9.800;2022-10-16T10:06:43;5.28;;;1.45;;
20034;SDS011;10178;48.034;9.800;2022-10-16T10:12:02;2.42;;;1.40;;
20034;SDS011;10178;48.034;9.800;2022-10-16T10:22:16;6.05;;;2.28;;
20034;SDS011;10178;48.034;9.800;2022-10-16T10:24:55;8.85;;;1.55;;
20034;SDS011;10178;48.034;9.800;2022-10-16T10:27:21;3.25;;;1.75;;
20034;SDS011;10178;48.034;9.800;2022-10-16T10:30:24;1.58;;;1.20;;
20034;SDS011;10178;48.034;9.800;2022-10-16T10:46:39;6.35;;;1.20;;
20034;SDS011;10178;48.034;9.800;2022-10-16T10:57:34;2.45;;;0.90;;
20034;SDS011;10178;48.034;9.800;2022-10-16T11:00:21;1.20;;;0.80;;
20034;SDS011;10178;48.034;9.800;2022-10-16T11:05:43;3.03;;;1.30;;
20034;SDS011;10178;48.034;9.800;2022-10-16T11:11:43;6.50;;;1.27;;
20034;SDS011;10178;48.034;9.800;2022-10-16T11:14:19;5.57;;;1.27;;
20034;SDS011;10178;48.034;9.800;2022-10-16T11:16:53;2.28;;;0.77;;
20034;SDS011;10178;48.034;9.800;2022-10-16T11:30:24;2.42;;;1.08;;
20034;SDS011;10178;48.034;9.800;2022-10-16T11:44:09;3.90;;;1.02;;
20034;SDS011;10178;48.034;9.800;2022-10-16T11:46:50;8.35;;;1.20;;
20034;SDS011;10178;48.034;9.800;2022-10-16T11:49:34;5.40;;;1.00;;
20034;SDS011;10178;48.034;9.800;2022-10-16T11:57:13;2.90;;;0.95;;
20034;SDS011;10178;48.034;9.800;2022-10-16T11:59:50;0.52;;;0.52;;
20034;SDS011;10178;48.034;9.800;2022-10-16T12:02:34;0.95;;;0.80;;
20034;SDS011;10178;48.034;9.800;2022-10-16T12:07:27;2.80;;;0.68;;
20034;SDS011;10178;48.034;9.800;2022-10-16T12:10:09;4.95;;;0.85;;
20034;SDS011;10178;48.034;9.800;2022-10-16T12:12:43;0.82;;;0.70;;
20034;SDS011;10178;48.034;9.800;2022-10-16T12:17:46;2.47;;;0.80;;
20034;SDS011;10178;48.034;9.800;2022-10-16T12:22:40;6.32;;;1.13;;
20034;SDS011;10178;48.034;9.800;2022-10-16T12:25:20;1.52;;;1.10;;
20034;SDS011;10178;48.034;9.800;2022-10-16T12:28:06;1.95;;;0.90;;
20034;SDS011;10178;48.034;9.800;2022-10-16T12:30:51;2.17;;;0.70;;
20034;SDS011;10178;48.034;9.800;2022-10-16T12:33:32;1.45;;;0.77;;
20034;SDS011;10178;48.034;9.800;2022-10-16T12:35:59;2.28;;;1.08;;
20034;SDS011;10178;48.034;9.800;2022-10-16T12:38:44;1.75;;;0.80;;
20034;SDS011;10178;48.034;9.800;2022-10-16T12:41:12;10.15;;;0.80;;
20034;SDS011;10178;48.034;9.800;2022-10-16T12:43:48;2.00;;;0.90;;
20034;SDS011;10178;48.034;9.800;2022-10-16T12:48:40;5.53;;;0.80;;
20034;SDS011;10178;48.034;9.800;2022-10-16T12:51:19;2.08;;;0.57;;
20034;SDS011;10178;48.034;9.800;2022-10-16T12:53:57;3.03;;;0.73;;
20034;SDS011;10178;48.034;9.800;2022-10-16T12:56:31;1.52;;;0.95;;
20034;SDS011;10178;48.034;9.800;2022-10-16T13:01:47;2.05;;;0.70;;
20034;SDS011;10178;48.034;9.800;2022-10-16T13:04:22;0.80;;;0.80;;
20034;SDS011;10178;48.034;9.800;2022-10-16T13:09:59;0.50;;;0.50;;
20034;SDS011;10178;48.034;9.800;2022-10-16T13:28:51;1.15;;;0.80;;
20034;SDS011;10178;48.034;9.800;2022-10-16T13:31:20;1.60;;;0.73;;
20034;SDS011;10178;48.034;9.800;2022-10-16T13:33:53;0.70;;;0.70;;
20034;SDS011;10178;48.034;9.800;2022-10-16T13:36:22;2.92;;;0.75;;
20034;SDS011;10178;48.034;9.800;2022-10-16T13:41:34;7.63;;;0.80;;
20034;SDS011;10178;48.034;9.800;2022-10-16T13:43:59;0.85;;;0.75;;
20034;SDS011;10178;48.034;9.800;2022-10-16T13:46:25;0.80;;;0.80;;
20034;SDS011;10178;48.034;9.800;2022-10-16T13:49:02;0.60;;;0.60;;
20034;SDS011;10178;48.034;9.800;2022-10-16T13:51:29;4.95;;;0.70;;
20034;SDS011;10178;48.034;9.800;2022-10-16T13:53:56;0.80;;;0.80;;
20034;SDS011;10178;48.034;9.800;2022-10-16T13:56:22;0.73;;;0.73;;
20034;SDS011;10178;48.034;9.800;2022-10-16T14:01:50;6.95;;;1.15;;
20034;SDS011;10178;48.034;9.800;2022-10-16T14:04:18;7.53;;;0.98;;
20034;SDS011;10178;48.034;9.800;2022-10-16T14:06:46;0.65;;;0.65;;
20034;SDS011;10178;48.034;9.800;2022-10-16T14:09:24;7.15;;;0.90;;
20034;SDS011;10178;48.034;9.800;2022-10-16T14:11:58;0.98;;;0.70;;
20034;SDS011;10178;48.034;9.800;2022-10-16T14:14:38;9.38;;;1.20;;
20034;SDS011;10178;48.034;9.800;2022-10-16T14:17:13;0.55;;;0.55;;
20034;SDS011;10178;48.034;9.800;2022-10-16T14:19:47;3.70;;;0.80;;
20034;SDS011;10178;48.034;9.800;2022-10-16T14:31:00;2.88;;;0.80;;
20034;SDS011;10178;48.034;9.800;2022-10-16T14:36:02;4.60;;;1.30;;
20034;SDS011;10178;48.034;9.800;2022-10-16T14:38:28;4.15;;;0.95;;
20034;SDS011;10178;48.034;9.800;2022-10-16T14:40:54;2.28;;;0.85;;
20034;SDS011;10178;48.034;9.800;2022-10-16T14:43:26;4.82;;;0.80;;
20034;SDS011;10178;48.034;9.800;2022-10-16T14:45:57;1.08;;;0.98;;
20034;SDS011;10178;48.034;9.800;2022-10-16T14:48:23;1.77;;;0.77;;
20034;SDS011;10178;48.034;9.800;2022-10-16T14:50:49;5.75;;;1.02;;
20034;SDS011;10178;48.034;9.800;2022-10-16T14:53:15;3.28;;;1.10;;
20034;SDS011;10178;48.034;9.800;2022-10-16T14:55:41;1.67;;;1.00;;
20034;SDS011;10178;48.034;9.800;2022-10-16T14:58:18;12.88;;;1.45;;
20034;SDS011;10178;48.034;9.800;2022-10-16T15:00:46;5.40;;;1.33;;
20034;SDS011;10178;48.034;9.800;2022-10-16T15:03:12;3.15;;;1.75;;
20034;SDS011;10178;48.034;9.800;2022-10-16T15:05:38;4.03;;;1.17;;
20034;SDS011;10178;48.034;9.800;2022-10-16T15:08:16;2.67;;;0.85;;
20034;SDS011;10178;48.034;9.800;2022-10-16T15:10:45;1.77;;;0.88;;
20034;SDS011;10178;48.034;9.800;2022-10-16T15:13:12;1.10;;;0.80;;
20034;SDS011;10178;48.034;9.800;2022-10-16T15:15:42;1.10;;;0.85;;
20034;SDS011;10178;48.034;9.800;2022-10-16T15:18:09;3.08;;;0.90;;
20034;SDS011;10178;48.034;9.800;2022-10-16T15:20:35;1.52;;;0.90;;
20034;SDS011;10178;48.034;9.800;2022-10-16T15:23:08;1.88;;;1.02;;
20034;SDS011;10178;48.034;9.800;2022-10-16T15:25:47;4.00;;;1.73;;
20034;SDS011;10178;48.034;9.800;2022-10-16T15:28:14;9.65;;;1.17;;
20034;SDS011;10178;48.034;9.800;2022-10-16T15:30:41;7.68;;;1.58;;
20034;SDS011;10178;48.034;9.800;2022-10-16T15:33:14;8.43;;;1.70;;
20034;SDS011;10178;48.034;9.800;2022-10-16T15:35:41;4.38;;;1.20;;
20034;SDS011;10178;48.034;9.800;2022-10-16T15:38:14;8.30;;;1.13;;
20034;SDS011;10178;48.034;9.800;2022-10-16T15:40:40;5.00;;;1.23;;
20034;SDS011;10178;48.034;9.800;2022-10-16T15:43:06;4.18;;;1.52;;
20034;SDS011;10178;48.034;9.800;2022-10-16T15:45:33;13.15;;;1.20;;
20034;SDS011;10178;48.034;9.800;2022-10-16T15:47:58;6.55;;;1.17;;
20034;SDS011;10178;48.034;9.800;2022-10-16T15:50:24;4.78;;;1.10;;
20034;SDS011;10178;48.034;9.800;2022-10-16T15:52:50;8.95;;;1.20;;
20034;SDS011;10178;48.034;9.800;2022-10-16T15:55:16;3.15;;;1.20;;
20034;SDS011;10178;48.034;9.800;2022-10-16T15:57:43;7.78;;;1.40;;
20034;SDS011;10178;48.034;9.800;2022-10-16T16:00:15;6.30;;;1.00;;
20034;SDS011;10178;48.034;9.800;2022-10-16T16:02:43;5.75;;;1.10;;
20034;SDS011;10178;48.034;9.800;2022-10-16T16:05:10;10.48;;;1.20;;
20034;SDS011;10178;48.034;9.800;2022-10-16T16:07:36;5.53;;;1.10;;
20034;SDS011;10178;48.034;9.800;2022-10-16T16:10:04;36.95;;;2.30;;
20034;SDS011;10178;48.034;9.800;2022-10-16T16:12:31;3.65;;;1.23;;
20034;SDS011;10178;48.034;9.800;2022-10-16T16:14:58;8.98;;;1.10;;
20034;SDS011;10178;48.034;9.800;2022-10-16T16:17:23;14.05;;;1.55;;
20034;SDS011;10178;48.034;9.800;2022-10-16T16:19:49;9.55;;;1.30;;
20034;SDS011;10178;48.034;9.800;2022-10-16T16:22:15;10.15;;;1.48;;
20034;SDS011;10178;48.034;9.800;2022-10-16T16:24:41;7.57;;;1.25;;
20034;SDS011;10178;48.034;9.800;2022-10-16T16:27:07;8.85;;;1.58;;
20034;SDS011;10178;48.034;9.800;2022-10-16T16:29:32;9.10;;;1.70;;
20034;SDS011;10178;48.034;9.800;2022-10-16T16:31:59;10.70;;;1.40;;
20034;SDS011;10178;48.034;9.800;2022-10-16T16:34:26;9.68;;;1.58;;
20034;SDS011;10178;48.034;9.800;2022-10-16T16:36:52;8.90;;;1.70;;
20034;SDS011;10178;48.034;9.800;2022-10-16T16:39:18;12.68;;;1.63;;
20034;SDS011;10178;48.034;9.800;2022-10-16T16:41:44;8.77;;;1.73;;
20034;SDS011;10178;48.034;9.800;2022-10-16T16:44:10;12.15;;;1.92;;
20034;SDS011;10178;48.034;9.800;2022-10-16T16:46:37;7.75;;;1.30;;
20034;SDS011;10178;48.034;9.800;2022-10-16T16:49:05;10.07;;;1.20;;
20034;SDS011;10178;48.034;9.800;2022-10-16T16:51:31;10.93;;;1.92;;
20034;SDS011;10178;48.034;9.800;2022-10-16T16:57:32;7.88;;;1.60;;
20034;SDS011;10178;48.034;9.800;2022-10-16T16:59:58;6.68;;;1.60;;
20034;SDS011;10178;48.034;9.800;2022-10-16T17:02:23;6.88;;;1.40;;
20034;SDS011;10178;48.034;9.800;2022-10-16T17:04:50;10.38;;;1.33;;
20034;SDS011;10178;48.034;9.800;2022-10-16T17:07:15;10.10;;;1.42;;
20034;SDS011;10178;48.034;9.800;2022-10-16T17:09:41;5.63;;;1.50;;
20034;SDS011;10178;48.034;9.800;2022-10-16T17:12:15;12.25;;;1.40;;
20034;SDS011;10178;48.034;9.800;2022-10-16T17:14:41;10.00;;;1.70;;
20034;SDS011;10178;48.034;9.800;2022-10-16T17:17:06;17.65;;;1.45;;
20034;SDS011;10178;48.034;9.800;2022-10-16T17:19:32;7.78;;;1.85;;
20034;SDS011;10178;48.034;9.800;2022-10-16T17:21:58;10.25;;;1.60;;
20034;SDS011;10178;48.034;9.800;2022-10-16T17:24:23;5.03;;;1.45;;
20034;SDS011;10178;48.034;9.800;2022-10-16T17:26:49;11.68;;;1.60;;
20034;SDS011;10178;48.034;9.800;2022-10-16T17:29:15;11.38;;;1.50;;
20034;SDS011;10178;48.034;9.800;2022-10-16T17:31:42;9.90;;;1.80;;
20034;SDS011;10178;48.034;9.800;2022-10-16T17:34:08;4.82;;;1.80;;
20034;SDS011;10178;48.034;9.800;2022-10-16T17:36:36;15.82;;;1.60;;
20034;SDS011;10178;48.034;9.800;2022-10-16T17:39:09;9.32;;;1.70;;
20034;SDS011;10178;48.034;9.800;2022-10-16T17:44:35;12.30;;;1.55;;
20034;SDS011;10178;48.034;9.800;2022-10-16T17:47:01;14.63;;;1.80;;